Time;durP1;ratioP1;P1;durP2;ratioP2;P2;SDS_P1;SDS_P2;PMS_P1;PMS_P2;Temp;Humidity;BMP_temperature;BMP_pressure;BME280_temperature;BME280_humidity;BME280_pressure;Samples;Min_cycle;Max_cycle;Signal;HPM_P1;HPM_P2
2023/07/27 00:01:23;;;;;;;3.70;1.33;;;23.80;96.70;;;;;;5043912;28;20041;-76
2023/07/27 00:03:51;;;;;;;3.75;1.23;;;23.80;96.70;;;;;;5042859;28;20095;-76
2023/07/27 00:06:19;;;;;;;4.60;0.90;;;23.90;96.70;;;;;;5042885;28;20052;-76
2023/07/27 00:08:48;;;;;;;4.80;1.40;;;23.90;96.70;;;;;;5041880;28;20472;-77
2023/07/27 00:11:16;;;;;;;7.20;1.10;;;23.80;96.70;;;;;;5043813;28;20049;-77
2023/07/27 00:13:44;;;;;;;5.93;1.00;;;23.80;96.70;;;;;;5044418;28;20061;-77
2023/07/27 00:16:12;;;;;;;5.00;1.42;;;23.80;96.70;;;;;;5047365;28;20076;-77
2023/07/27 00:18:39;;;;;;;5.47;1.50;;;23.70;96.70;;;;;;5044058;28;20055;-77
2023/07/27 00:21:08;;;;;;;3.45;1.35;;;23.70;96.70;;;;;;5043423;28;20047;-76
2023/07/27 00:23:36;;;;;;;3.67;0.85;;;23.70;96.70;;;;;;5041202;28;21663;-77
2023/07/27 00:26:05;;;;;;;5.85;1.10;;;23.70;96.70;;;;;;5042655;28;20044;-76
2023/07/27 00:28:33;;;;;;;4.53;1.00;;;23.70;96.70;;;;;;5025053;28;20421;-76
2023/07/27 00:31:01;;;;;;;5.55;1.30;;;23.80;96.70;;;;;;5046520;28;20040;-77
2023/07/27 00:33:29;;;;;;;4.50;1.40;;;23.80;96.70;;;;;;5043780;28;20055;-78
2023/07/27 00:35:57;;;;;;;6.38;1.02;;;23.80;96.70;;;;;;5025485;28;20501;-76
2023/07/27 00:38:26;;;;;;;3.03;1.23;;;23.70;96.70;;;;;;5043076;28;20045;-77
2023/07/27 00:40:55;;;;;;;6.75;1.60;;;23.70;96.70;;;;;;5044563;28;20033;-76
2023/07/27 00:43:24;;;;;;;4.07;1.20;;;23.60;96.70;;;;;;5047459;28;20148;-77
2023/07/27 00:45:53;;;;;;;2.63;1.00;;;23.50;96.70;;;;;;5046101;28;20069;-77
2023/07/27 00:48:22;;;;;;;4.07;1.20;;;23.50;96.70;;;;;;5043847;28;20057;-77
2023/07/27 00:50:51;;;;;;;2.13;0.85;;;23.50;96.70;;;;;;5043110;28;20045;-77
2023/07/27 00:53:22;;;;;;;3.00;1.00;;;23.40;96.70;;;;;;5042044;28;20059;-77
2023/07/27 00:55:51;;;;;;;3.58;1.30;;;23.40;96.70;;;;;;5043808;28;20061;-76
2023/07/27 00:58:19;;;;;;;5.97;1.30;;;23.30;96.70;;;;;;5035057;28;20591;-77
2023/07/27 01:00:48;;;;;;;2.75;0.93;;;23.30;96.70;;;;;;5042043;28;20053;-77
2023/07/27 01:03:17;;;;;;;4.47;1.08;;;23.30;96.70;;;;;;5040933;28;20037;-77
2023/07/27 01:05:48;;;;;;;3.60;0.98;;;23.40;96.70;;;;;;5043071;28;20040;-77
2023/07/27 01:08:16;;;;;;;3.85;1.20;;;23.30;96.70;;;;;;5041921;28;20041;-77
2023/07/27 01:10:55;;;;;;;3.20;0.90;;;23.30;96.70;;;;;;5042009;28;20047;-76
2023/07/27 01:13:31;;;;;;;2.22;1.17;;;23.40;96.70;;;;;;5041700;28;20053;-77
2023/07/27 01:16:05;;;;;;;4.57;1.00;;;23.30;96.70;;;;;;5057252;28;20094;-77
2023/07/27 01:18:40;;;;;;;6.00;1.33;;;23.10;96.70;;;;;;5041485;28;20099;-76
2023/07/27 01:21:15;;;;;;;2.70;0.90;;;23.10;96.70;;;;;;5041509;28;20418;-77
2023/07/27 01:24:22;;;;;;;3.88;0.93;;;23.10;96.70;;;;;;5040496;28;20052;-77
2023/07/27 01:27:17;;;;;;;3.83;1.10;;;23.10;96.70;;;;;;5034051;28;20045;-77
2023/07/27 01:30:02;;;;;;;5.35;1.27;;;23.10;96.70;;;;;;5024152;28;20049;-76
2023/07/27 01:32:35;;;;;;;3.28;0.90;;;23.00;96.70;;;;;;5039709;28;20528;-77
2023/07/27 01:35:06;;;;;;;3.85;1.50;;;23.00;96.70;;;;;;5041936;28;20052;-76
2023/07/27 01:37:37;;;;;;;6.38;1.40;;;23.00;96.70;;;;;;5040141;28;20418;-76
2023/07/27 01:40:08;;;;;;;5.93;0.98;;;22.90;96.70;;;;;;5041549;28;20036;-77
2023/07/27 01:42:37;;;;;;;5.63;1.52;;;22.90;96.70;;;;;;5043073;28;20052;-77
2023/07/27 01:45:08;;;;;;;6.72;1.42;;;22.80;96.70;;;;;;5041290;28;20052;-77
2023/07/27 01:47:43;;;;;;;4.82;0.98;;;22.80;96.70;;;;;;5041421;28;20060;-76
2023/07/27 01:50:13;;;;;;;3.53;0.95;;;22.60;96.70;;;;;;5042731;28;20067;-77
2023/07/27 01:52:42;;;;;;;3.67;1.13;;;22.60;96.70;;;;;;5042868;28;20044;-77
2023/07/27 01:55:12;;;;;;;6.13;1.88;;;22.60;96.70;;;;;;5038082;28;20045;-77
2023/07/27 01:57:40;;;;;;;5.25;1.67;;;22.50;96.70;;;;;;5044804;28;20159;-77
2023/07/27 02:00:09;;;;;;;4.13;1.20;;;22.60;96.70;;;;;;5041151;28;20048;-76
2023/07/27 02:02:43;;;;;;;3.05;1.33;;;22.40;96.70;;;;;;5043428;28;20063;-77
2023/07/27 02:05:12;;;;;;;6.25;1.13;;;22.40;96.70;;;;;;5041179;28;20051;-77
2023/07/27 02:07:40;;;;;;;4.13;1.05;;;22.40;96.70;;;;;;5041632;28;20041;-76
2023/07/27 02:10:10;;;;;;;4.50;1.30;;;22.30;96.70;;;;;;5047357;28;20047;-76
2023/07/27 02:12:45;;;;;;;7.78;1.38;;;22.30;96.70;;;;;;5043012;28;20523;-77
2023/07/27 02:15:17;;;;;;;3.75;0.93;;;22.30;96.70;;;;;;5042753;28;20088;-77
2023/07/27 02:17:52;;;;;;;5.78;1.38;;;22.30;96.70;;;;;;5045379;28;20387;-77
2023/07/27 02:20:21;;;;;;;6.30;1.55;;;22.20;96.70;;;;;;5045560;28;20045;-77
2023/07/27 02:22:51;;;;;;;4.78;1.27;;;22.20;96.70;;;;;;5045773;28;20052;-77
2023/07/27 02:25:19;;;;;;;4.95;1.33;;;22.20;96.70;;;;;;5042926;28;20076;-76
2023/07/27 02:27:47;;;;;;;2.95;1.08;;;22.20;96.70;;;;;;5028422;28;20144;-77
2023/07/27 02:30:16;;;;;;;6.00;1.42;;;22.30;96.70;;;;;;5044455;28;20356;-77
2023/07/27 02:32:44;;;;;;;5.50;1.40;;;22.30;96.70;;;;;;5044990;28;20049;-77
2023/07/27 02:35:13;;;;;;;6.28;1.50;;;22.30;96.70;;;;;;5043879;28;20044;-76
2023/07/27 02:37:48;;;;;;;5.72;1.85;;;22.30;96.70;;;;;;5044845;28;20053;-77
2023/07/27 02:40:16;;;;;;;4.60;1.30;;;22.30;96.70;;;;;;5028218;28;20077;-76
2023/07/27 02:42:44;;;;;;;3.35;1.30;;;22.20;96.70;;;;;;5044554;28;20602;-76
2023/07/27 02:45:14;;;;;;;5.22;1.27;;;22.10;96.70;;;;;;5044225;28;20052;-76
2023/07/27 02:47:42;;;;;;;5.60;1.45;;;22.00;96.70;;;;;;5045435;28;20064;-76
2023/07/27 02:50:10;;;;;;;2.72;1.30;;;21.90;96.70;;;;;;5044026;28;20193;-77
2023/07/27 02:53:05;;;;;;;6.72;1.73;;;21.50;96.70;;;;;;5037710;28;20138;-76
2023/07/27 02:55:35;;;;;;;3.33;1.10;;;21.00;96.70;;;;;;5046179;28;20584;-76
2023/07/27 02:58:03;;;;;;;4.05;1.10;;;20.90;96.70;;;;;;5031449;28;20071;-75
2023/07/27 03:00:34;;;;;;;5.20;1.42;;;21.10;96.70;;;;;;5043744;28;20069;-77
2023/07/27 03:03:04;;;;;;;5.50;1.85;;;21.20;96.70;;;;;;5039003;28;20072;-77
2023/07/27 03:05:32;;;;;;;4.10;1.13;;;21.20;96.70;;;;;;5040536;28;20383;-77
2023/07/27 03:08:00;;;;;;;6.15;1.35;;;21.30;96.70;;;;;;5039293;28;20048;-77
2023/07/27 03:10:36;;;;;;;4.03;1.13;;;21.30;96.70;;;;;;5033356;28;20098;-77
2023/07/27 03:13:04;;;;;;;6.00;1.17;;;21.40;96.70;;;;;;5031965;28;20132;-76
2023/07/27 03:15:32;;;;;;;3.17;1.25;;;21.60;96.70;;;;;;5037409;28;20048;-77
2023/07/27 03:18:00;;;;;;;3.70;0.85;;;21.60;96.70;;;;;;5041029;28;20048;-76
2023/07/27 03:20:28;;;;;;;5.85;1.52;;;21.60;96.70;;;;;;5041666;28;20144;-77
2023/07/27 03:22:56;;;;;;;4.57;1.08;;;21.60;96.70;;;;;;5044100;28;20095;-77
2023/07/27 03:25:24;;;;;;;4.20;1.25;;;21.60;96.70;;;;;;5045385;28;20500;-76
2023/07/27 03:27:54;;;;;;;2.28;0.77;;;21.70;96.70;;;;;;5043663;28;20419;-76
2023/07/27 03:30:22;;;;;;;4.60;1.20;;;21.70;96.70;;;;;;5045224;28;20036;-76
2023/07/27 03:32:50;;;;;;;3.67;0.95;;;21.80;96.70;;;;;;5043344;28;20045;-77
2023/07/27 03:35:18;;;;;;;3.97;1.13;;;21.70;96.70;;;;;;5043484;28;20135;-76
2023/07/27 03:37:46;;;;;;;3.80;1.08;;;21.70;96.70;;;;;;5027404;28;20528;-76
2023/07/27 03:40:17;;;;;;;4.70;1.23;;;21.80;96.70;;;;;;5043038;28;20493;-76
2023/07/27 03:42:45;;;;;;;3.38;0.68;;;21.90;96.70;;;;;;5043038;28;20041;-77
2023/07/27 03:45:15;;;;;;;2.80;1.02;;;21.90;96.70;;;;;;5044541;28;20621;-77
2023/07/27 03:47:45;;;;;;;2.67;0.70;;;21.80;96.70;;;;;;5043508;28;20435;-76
2023/07/27 03:50:13;;;;;;;2.45;0.80;;;21.60;96.70;;;;;;5028686;28;20051;-77
2023/07/27 03:52:45;;;;;;;4.68;0.82;;;21.60;96.70;;;;;;5043259;28;20142;-77
2023/07/27 03:55:18;;;;;;;2.42;0.65;;;21.60;96.70;;;;;;5040948;28;20063;-76
2023/07/27 03:57:48;;;;;;;4.30;0.80;;;21.60;96.70;;;;;;5038169;28;20048;-76
2023/07/27 04:00:17;;;;;;;4.93;1.10;;;21.60;96.70;;;;;;5038128;28;20044;-76
2023/07/27 04:02:47;;;;;;;3.80;0.80;;;21.60;96.70;;;;;;5037924;28;20490;-76
2023/07/27 04:05:15;;;;;;;4.10;1.15;;;21.50;96.70;;;;;;5037840;28;20033;-77
2023/07/27 04:07:43;;;;;;;6.15;0.88;;;21.50;96.70;;;;;;5027088;28;20108;-77
2023/07/27 04:10:11;;;;;;;4.50;1.20;;;21.40;96.70;;;;;;5037740;28;21343;-76
2023/07/27 04:12:39;;;;;;;4.22;1.00;;;21.30;96.70;;;;;;5036432;28;20056;-77
2023/07/27 04:15:08;;;;;;;2.75;0.55;;;21.40;96.70;;;;;;5046253;28;20071;-76
2023/07/27 04:17:37;;;;;;;3.83;0.80;;;21.50;96.70;;;;;;5032473;28;20486;-77
2023/07/27 04:20:08;;;;;;;3.08;0.80;;;21.50;96.70;;;;;;5036210;28;20095;-76
2023/07/27 04:22:36;;;;;;;2.63;0.98;;;21.50;96.70;;;;;;5045774;28;20041;-76
2023/07/27 04:25:05;;;;;;;3.80;1.17;;;21.50;96.70;;;;;;5039238;28;20438;-77
2023/07/27 04:27:33;;;;;;;4.32;1.08;;;21.50;96.70;;;;;;5040060;28;20048;-76
2023/07/27 04:30:01;;;;;;;4.60;1.10;;;21.50;96.70;;;;;;5038443;28;20041;-77
2023/07/27 04:32:29;;;;;;;5.93;1.10;;;21.50;96.70;;;;;;5045532;28;20130;-76
2023/07/27 04:34:59;;;;;;;4.47;1.00;;;21.50;96.70;;;;;;5037674;28;20041;-76
2023/07/27 04:37:27;;;;;;;2.78;0.77;;;21.50;96.70;;;;;;5037860;28;20052;-77
2023/07/27 04:39:55;;;;;;;4.93;1.27;;;21.60;96.70;;;;;;5038032;28;20494;-77
2023/07/27 04:42:23;;;;;;;3.55;1.17;;;21.50;96.70;;;;;;5031894;28;20049;-76
2023/07/27 04:44:51;;;;;;;2.25;0.77;;;21.40;96.70;;;;;;5037770;28;20521;-77
2023/07/27 04:47:19;;;;;;;4.10;1.08;;;21.50;96.70;;;;;;5050683;28;20047;-76
2023/07/27 04:49:47;;;;;;;5.32;1.58;;;21.60;96.70;;;;;;5037562;28;20044;-76
2023/07/27 04:52:16;;;;;;;3.53;1.08;;;21.70;96.70;;;;;;5037818;28;20548;-76
2023/07/27 04:54:44;;;;;;;3.05;1.10;;;21.80;96.70;;;;;;5041007;28;20075;-76
2023/07/27 04:57:12;;;;;;;5.95;1.20;;;21.80;96.70;;;;;;5038940;28;20414;-77
2023/07/27 04:59:40;;;;;;;2.53;1.00;;;21.80;96.70;;;;;;5041142;28;20068;-76
2023/07/27 05:02:08;;;;;;;3.38;0.95;;;21.70;96.70;;;;;;5036961;28;20045;-77
2023/07/27 05:04:36;;;;;;;4.82;1.73;;;21.70;96.70;;;;;;5038049;28;20045;-76
2023/07/27 05:07:04;;;;;;;2.67;0.95;;;21.70;96.70;;;;;;5037686;28;20049;-76
2023/07/27 05:09:34;;;;;;;3.42;1.17;;;21.80;96.70;;;;;;5037005;28;20045;-76
2023/07/27 05:12:02;;;;;;;6.32;1.00;;;21.80;96.70;;;;;;5044876;28;20606;-76
2023/07/27 05:14:29;;;;;;;5.70;1.20;;;21.80;96.70;;;;;;5039077;28;20155;-76
2023/07/27 05:16:57;;;;;;;3.83;1.20;;;21.80;96.70;;;;;;5036290;28;20051;-77
2023/07/27 05:19:25;;;;;;;6.47;1.15;;;21.80;96.70;;;;;;5038633;28;20064;-76
2023/07/27 05:21:53;;;;;;;4.97;1.45;;;21.60;96.70;;;;;;5044575;28;20216;-74
2023/07/27 05:24:21;;;;;;;3.47;0.90;;;21.70;96.70;;;;;;5038563;28;20132;-77
2023/07/27 05:26:51;;;;;;;6.07;1.40;;;21.80;96.70;;;;;;5041075;28;20491;-76
2023/07/27 05:29:19;;;;;;;3.10;1.27;;;22.00;96.70;;;;;;5037601;28;20560;-77
2023/07/27 05:31:47;;;;;;;4.10;1.10;;;22.10;96.70;;;;;;5045782;28;20712;-76
2023/07/27 05:34:15;;;;;;;4.35;1.40;;;22.10;96.70;;;;;;5043001;28;20041;-76
2023/07/27 05:36:43;;;;;;;3.85;1.23;;;22.30;96.70;;;;;;5043782;28;20051;-77
2023/07/27 05:39:12;;;;;;;5.85;1.25;;;22.30;96.70;;;;;;5043113;28;20037;-76
2023/07/27 05:41:40;;;;;;;4.25;1.30;;;22.10;96.70;;;;;;5048816;28;20464;-80
2023/07/27 05:44:09;;;;;;;4.18;0.90;;;22.20;96.70;;;;;;5044414;28;20056;-81
2023/07/27 05:46:37;;;;;;;4.57;1.70;;;22.30;96.70;;;;;;5043853;28;20436;-76
2023/07/27 05:49:05;;;;;;;6.38;1.52;;;22.30;96.70;;;;;;5040981;28;20041;-77
2023/07/27 05:51:38;;;;;;;7.82;2.00;;;22.20;96.70;;;;;;5047977;28;20518;-77
2023/07/27 05:54:06;;;;;;;4.35;1.08;;;22.20;96.70;;;;;;5047910;28;20490;-76
2023/07/27 05:56:34;;;;;;;9.05;1.85;;;22.20;96.70;;;;;;5046387;28;20853;-77
2023/07/27 05:59:02;;;;;;;5.25;1.30;;;22.30;96.70;;;;;;5047396;28;20094;-77
2023/07/27 06:01:32;;;;;;;6.30;1.80;;;22.40;96.70;;;;;;5045766;28;20139;-78
2023/07/27 06:04:02;;;;;;;5.15;1.42;;;22.40;96.70;;;;;;5045661;28;20527;-78
2023/07/27 06:06:35;;;;;;;5.63;1.45;;;22.40;96.70;;;;;;5047706;28;20044;-78
2023/07/27 06:09:04;;;;;;;5.03;1.48;;;22.50;96.70;;;;;;5053537;28;20037;-79
2023/07/27 06:11:32;;;;;;;6.95;1.60;;;22.60;96.70;;;;;;5045246;28;20102;-79
2023/07/27 06:14:00;;;;;;;6.00;1.75;;;22.60;96.70;;;;;;5046255;28;20059;-82
2023/07/27 06:16:28;;;;;;;6.97;1.77;;;22.60;96.70;;;;;;5046844;28;20049;-81
2023/07/27 06:18:58;;;;;;;12.18;2.22;;;22.80;96.70;;;;;;5045953;28;20045;-81
2023/07/27 06:21:26;;;;;;;5.88;1.60;;;22.80;96.70;;;;;;5051815;28;20164;-78
2023/07/27 06:23:54;;;;;;;4.57;1.83;;;22.70;96.70;;;;;;5045271;28;20044;-79
2023/07/27 06:26:22;;;;;;;9.25;1.95;;;22.70;96.70;;;;;;5042029;28;20507;-79
2023/07/27 06:28:50;;;;;;;5.63;1.63;;;22.80;96.70;;;;;;5045735;28;20052;-78
2023/07/27 06:31:18;;;;;;;5.70;1.83;;;22.80;96.70;;;;;;5046759;28;20047;-78
2023/07/27 06:33:46;;;;;;;8.98;2.28;;;22.80;96.70;;;;;;5046506;28;20036;-79
2023/07/27 06:36:17;;;;;;;7.38;2.08;;;22.80;96.70;;;;;;5044953;28;20542;-78
2023/07/27 06:38:45;;;;;;;6.18;1.67;;;22.90;96.70;;;;;;5045677;28;20060;-78
2023/07/27 06:41:13;;;;;;;5.05;1.35;;;23.00;96.70;;;;;;5046656;28;20095;-78
2023/07/27 06:43:41;;;;;;;7.22;2.05;;;23.00;96.70;;;;;;5044714;28;20137;-78
2023/07/27 06:46:09;;;;;;;5.50;1.92;;;23.10;96.70;;;;;;5044673;28;20589;-77
2023/07/27 06:48:37;;;;;;;9.05;2.63;;;23.20;96.70;;;;;;5044456;28;20037;-80
2023/07/27 06:51:05;;;;;;;8.70;1.70;;;23.30;96.70;;;;;;5046444;28;20045;-79
2023/07/27 06:53:35;;;;;;;6.63;1.77;;;23.30;96.70;;;;;;5045060;28;20041;-78
2023/07/27 06:56:04;;;;;;;7.75;1.63;;;23.40;96.70;;;;;;5045078;28;20053;-78
2023/07/27 06:58:32;;;;;;;5.95;1.73;;;23.50;96.70;;;;;;5046495;28;20128;-79
2023/07/27 07:01:00;;;;;;;3.60;1.55;;;23.40;96.70;;;;;;5043133;28;20491;-79
2023/07/27 07:03:29;;;;;;;4.78;1.48;;;23.40;96.70;;;;;;5046251;28;20045;-81
2023/07/27 07:05:57;;;;;;;4.60;1.60;;;23.50;96.70;;;;;;5044786;28;20058;-80
2023/07/27 07:08:25;;;;;;;6.10;1.38;;;23.60;96.70;;;;;;5044718;28;20128;-79
2023/07/27 07:10:54;;;;;;;4.45;1.88;;;23.70;96.70;;;;;;5046455;28;20047;-79
2023/07/27 07:13:23;;;;;;;4.75;1.58;;;23.70;96.70;;;;;;5044247;28;20410;-79
2023/07/27 07:15:51;;;;;;;4.82;1.42;;;23.80;96.70;;;;;;5043796;28;20519;-80
2023/07/27 07:18:19;;;;;;;8.30;2.00;;;23.80;96.70;;;;;;5027797;28;20164;-79
2023/07/27 07:20:47;;;;;;;5.32;1.30;;;23.90;96.70;;;;;;5046085;28;20561;-82
2023/07/27 07:23:19;;;;;;;7.22;1.67;;;24.00;96.70;;;;;;5044555;28;20742;-80
2023/07/27 07:25:47;;;;;;;7.80;1.65;;;24.00;96.70;;;;;;5044617;28;20468;-80
2023/07/27 07:28:18;;;;;;;5.10;1.55;;;24.10;96.70;;;;;;5027923;28;20053;-80
2023/07/27 07:30:46;;;;;;;6.93;1.45;;;24.10;96.70;;;;;;5044561;28;20521;-81
2023/07/27 07:33:14;;;;;;;6.15;1.58;;;24.20;96.70;;;;;;5044307;28;20037;-80
2023/07/27 07:35:43;;;;;;;4.13;1.50;;;24.20;96.70;;;;;;5044543;28;20049;-80
2023/07/27 07:38:11;;;;;;;5.53;1.35;;;24.30;96.70;;;;;;5024832;28;20084;-80
2023/07/27 07:40:39;;;;;;;2.83;1.25;;;24.30;96.70;;;;;;5044335;28;20065;-80
2023/07/27 07:43:07;;;;;;;3.33;1.48;;;24.40;96.70;;;;;;5043825;28;20052;-80
2023/07/27 07:45:36;;;;;;;4.25;1.08;;;24.50;96.70;;;;;;5044006;28;20056;-81
2023/07/27 07:48:05;;;;;;;4.30;1.60;;;24.50;96.70;;;;;;5044272;28;20052;-81
2023/07/27 07:50:36;;;;;;;4.97;1.33;;;24.60;96.70;;;;;;5044658;28;20033;-79
2023/07/27 07:53:08;;;;;;;4.70;1.30;;;24.60;96.70;;;;;;5027698;28;20051;-80
2023/07/27 07:55:45;;;;;;;4.50;1.15;;;24.70;96.70;;;;;;5039015;28;20465;-80
2023/07/27 07:58:13;;;;;;;4.30;1.30;;;24.70;96.70;;;;;;5045345;28;20048;-80
2023/07/27 08:00:43;;;;;;;5.13;1.38;;;24.70;96.70;;;;;;5045243;28;20487;-80
2023/07/27 08:03:11;;;;;;;4.47;1.35;;;24.70;96.70;;;;;;5044283;28;20131;-81
2023/07/27 08:05:42;;;;;;;4.32;1.00;;;24.90;96.70;;;;;;5044508;28;20048;-81
2023/07/27 08:08:10;;;;;;;5.82;1.52;;;24.90;96.70;;;;;;5043806;28;20051;-81
2023/07/27 08:10:38;;;;;;;4.22;1.30;;;25.00;96.70;;;;;;5043522;28;20045;-81
2023/07/27 08:13:06;;;;;;;4.43;1.40;;;25.00;96.70;;;;;;5044572;28;20065;-80
2023/07/27 08:15:35;;;;;;;8.07;1.63;;;25.10;96.70;;;;;;5043308;28;20410;-79
2023/07/27 08:18:04;;;;;;;5.50;1.35;;;25.20;96.70;;;;;;5043052;28;20139;-79
2023/07/27 08:20:33;;;;;;;5.72;1.90;;;25.10;96.70;;;;;;5043286;28;20056;-78
2023/07/27 08:23:01;;;;;;;8.15;2.20;;;25.00;96.70;;;;;;5044966;28;20051;-80
2023/07/27 08:25:30;;;;;;;8.68;1.55;;;25.00;96.70;;;;;;5043911;28;20477;-80
2023/07/27 08:27:58;;;;;;;7.65;2.15;;;25.10;96.70;;;;;;5042924;28;20044;-79
2023/07/27 08:30:27;;;;;;;7.20;2.03;;;25.20;96.70;;;;;;5043350;28;20440;-79
2023/07/27 08:32:55;;;;;;;7.35;2.10;;;25.20;96.70;;;;;;5044151;28;20037;-81
2023/07/27 08:35:25;;;;;;;7.18;1.75;;;25.20;96.70;;;;;;5044268;28;20395;-81
2023/07/27 08:37:53;;;;;;;6.88;1.55;;;25.20;96.70;;;;;;5035458;28;20048;-79
2023/07/27 08:40:21;;;;;;;5.43;2.08;;;25.30;96.70;;;;;;5044338;28;20091;-80
2023/07/27 08:42:50;;;;;;;7.90;1.90;;;25.40;96.70;;;;;;5042875;28;20095;-79
2023/07/27 08:45:21;;;;;;;6.32;1.92;;;25.40;96.70;;;;;;5026068;28;20041;-79
2023/07/27 08:47:52;;;;;;;5.95;1.73;;;25.50;96.70;;;;;;5043806;28;20049;-80
2023/07/27 08:50:24;;;;;;;5.82;1.60;;;25.60;96.70;;;;;;5043224;28;20544;-80
2023/07/27 08:52:52;;;;;;;6.18;1.85;;;25.70;96.70;;;;;;5044161;28;20279;-79
2023/07/27 08:55:21;;;;;;;6.97;1.65;;;25.80;96.70;;;;;;5042831;28;20045;-79
2023/07/27 08:57:49;;;;;;;7.60;1.73;;;25.90;96.70;;;;;;5043779;28;20045;-79
2023/07/27 09:00:19;;;;;;;7.13;2.00;;;25.90;96.70;;;;;;5034743;28;20037;-80
2023/07/27 09:02:47;;;;;;;6.18;1.73;;;25.90;96.70;;;;;;5042249;28;20045;-79
2023/07/27 09:05:16;;;;;;;3.13;1.25;;;25.90;96.70;;;;;;5026217;28;20044;-79
2023/07/27 09:07:49;;;;;;;6.43;1.65;;;26.00;96.70;;;;;;5042278;28;20491;-79
2023/07/27 09:10:18;;;;;;;6.88;1.50;;;26.10;96.70;;;;;;5043201;28;20041;-79
2023/07/27 09:12:48;;;;;;;5.57;1.75;;;26.20;96.70;;;;;;5042380;28;20069;-80
2023/07/27 09:15:16;;;;;;;6.10;1.85;;;26.20;96.70;;;;;;5041997;28;20509;-79
2023/07/27 09:17:45;;;;;;;8.82;2.25;;;26.30;96.70;;;;;;5043865;28;20048;-80
2023/07/27 09:20:13;;;;;;;8.70;2.03;;;26.30;96.70;;;;;;5042629;28;20533;-81
2023/07/27 09:22:44;;;;;;;8.05;2.03;;;26.40;96.70;;;;;;5042721;28;20513;-79
2023/07/27 09:25:20;;;;;;;6.78;1.80;;;26.40;96.70;;;;;;5040486;28;20144;-80
2023/07/27 09:27:53;;;;;;;7.15;1.88;;;26.40;96.70;;;;;;5043835;28;20044;-80
2023/07/27 09:30:23;;;;;;;5.68;1.65;;;26.50;96.70;;;;;;5043926;28;20052;-80
2023/07/27 09:32:52;;;;;;;5.20;1.70;;;26.50;96.70;;;;;;5041971;28;20132;-80
2023/07/27 09:35:22;;;;;;;4.30;2.00;;;26.50;96.70;;;;;;5041821;28;20049;-79
2023/07/27 09:37:52;;;;;;;5.90;1.75;;;26.60;96.70;;;;;;5042050;28;20064;-79
2023/07/27 09:40:24;;;;;;;8.52;2.17;;;26.70;96.70;;;;;;5043475;28;20064;-79
2023/07/27 09:42:53;;;;;;;5.82;1.92;;;26.80;96.70;;;;;;5043632;28;20132;-78
2023/07/27 09:45:21;;;;;;;5.45;1.77;;;26.90;96.70;;;;;;5042438;28;20475;-79
2023/07/27 09:47:52;;;;;;;10.15;2.50;;;26.90;96.70;;;;;;5042875;28;20142;-81
2023/07/27 09:50:22;;;;;;;6.57;2.15;;;27.00;96.70;;;;;;5043026;28;20045;-81
2023/07/27 09:52:50;;;;;;;5.38;1.65;;;27.10;96.70;;;;;;5042659;28;20426;-79
2023/07/27 09:55:20;;;;;;;3.15;1.20;;;27.10;96.70;;;;;;5043730;28;20103;-79
2023/07/27 09:57:51;;;;;;;6.03;1.17;;;27.20;96.70;;;;;;5043311;28;20482;-78
2023/07/27 10:00:19;;;;;;;8.27;1.75;;;27.20;96.70;;;;;;5041649;28;20045;-79
2023/07/27 10:02:48;;;;;;;4.38;1.30;;;27.30;96.70;;;;;;5043554;28;20056;-80
2023/07/27 10:05:16;;;;;;;4.72;1.77;;;27.50;96.70;;;;;;5043626;28;20049;-79
2023/07/27 10:07:46;;;;;;;5.43;1.48;;;27.60;96.70;;;;;;5042112;28;20481;-79
2023/07/27 10:10:34;;;;;;;5.03;1.42;;;27.70;96.70;;;;;;5041021;28;20049;-78
2023/07/27 10:13:10;;;;;;;4.57;1.65;;;27.90;96.70;;;;;;5041656;28;20053;-78
2023/07/27 10:15:43;;;;;;;4.40;1.58;;;28.00;96.70;;;;;;5038920;28;20064;-79
2023/07/27 10:18:15;;;;;;;6.07;1.35;;;27.90;96.70;;;;;;5041812;28;20055;-78
2023/07/27 10:20:43;;;;;;;5.68;1.00;;;28.00;96.70;;;;;;5038900;28;20052;-78
2023/07/27 10:23:18;;;;;;;2.88;0.80;;;28.00;96.70;;;;;;5042286;28;20041;-79
2023/07/27 10:26:05;;;;;;;6.43;1.50;;;28.10;96.70;;;;;;5043505;28;20057;-79
2023/07/27 10:28:41;;;;;;;5.47;1.00;;;28.30;96.70;;;;;;5040927;28;20037;-80
2023/07/27 10:31:22;;;;;;;3.57;1.03;;;28.30;96.70;;;;;;5033452;28;20051;-78
2023/07/27 10:33:55;;;;;;;4.13;1.00;;;28.40;96.70;;;;;;5041827;28;20049;-79
2023/07/27 10:36:52;;;;;;;2.45;0.73;;;28.50;96.70;;;;;;5044301;28;20072;-79
2023/07/27 10:39:26;;;;;;;1.98;0.80;;;28.70;96.70;;;;;;5047116;28;20036;-79
2023/07/27 10:42:02;;;;;;;2.13;0.90;;;28.90;96.70;;;;;;5045443;28;20099;-78
2023/07/27 10:44:45;;;;;;;5.13;0.70;;;29.00;96.70;;;;;;5045934;28;20045;-78
2023/07/27 10:47:15;;;;;;;2.45;0.95;;;29.00;96.70;;;;;;5047330;28;20155;-82
2023/07/27 10:49:44;;;;;;;2.15;0.88;;;29.10;96.70;;;;;;5047364;28;20064;-81
2023/07/27 10:52:18;;;;;;;1.58;0.88;;;29.20;96.70;;;;;;5045238;28;20171;-82
2023/07/27 10:54:48;;;;;;;2.13;0.90;;;29.30;96.70;;;;;;5023569;28;20568;-83
2023/07/27 10:57:18;;;;;;;4.60;0.90;;;29.50;96.70;;;;;;5048181;28;20056;-84
2023/07/27 10:59:50;;;;;;;5.72;1.40;;;29.60;96.70;;;;;;5047363;28;20048;-78
2023/07/27 11:02:22;;;;;;;4.63;1.67;;;29.70;96.70;;;;;;5045726;28;20750;-81
2023/07/27 11:04:52;;;;;;;5.03;1.30;;;29.80;96.70;;;;;;5027452;28;20049;-78
2023/07/27 11:07:28;;;;;;;3.30;1.00;;;29.70;96.70;;;;;;5046393;28;20045;-79
2023/07/27 11:09:58;;;;;;;3.45;1.40;;;29.50;96.70;;;;;;5044468;28;20075;-78
2023/07/27 11:12:26;;;;;;;2.38;1.17;;;29.60;96.70;;;;;;5044658;28;20045;-78
2023/07/27 11:15:16;;;;;;;4.05;1.17;;;29.70;96.70;;;;;;5044060;28;20063;-79
2023/07/27 11:17:45;;;;;;;2.58;1.08;;;29.70;96.70;;;;;;5039490;28;20056;-78
2023/07/27 11:20:16;;;;;;;2.40;0.75;;;29.80;96.70;;;;;;5044899;28;20107;-79
2023/07/27 11:22:46;;;;;;;3.95;1.00;;;30.10;96.70;;;;;;5045650;28;20049;-78
2023/07/27 11:25:14;;;;;;;2.15;0.82;;;30.20;96.70;;;;;;5027626;28;20414;-78
2023/07/27 11:27:42;;;;;;;2.90;1.05;;;30.20;96.70;;;;;;5044592;28;20096;-81
2023/07/27 11:30:17;;;;;;;5.60;0.90;;;30.10;96.70;;;;;;5045131;28;20067;-80
2023/07/27 11:32:58;;;;;;;2.30;0.80;;;30.10;96.70;;;;;;5045945;28;20622;-80
2023/07/27 11:35:26;;;;;;;2.65;0.73;;;30.30;96.70;;;;;;5044596;28;20506;-79
2023/07/27 11:37:55;;;;;;;3.17;1.00;;;30.30;96.70;;;;;;5036619;28;20065;-80
2023/07/27 11:40:26;;;;;;;3.30;1.02;;;30.40;96.70;;;;;;5041035;28;20049;-80
2023/07/27 11:42:55;;;;;;;2.60;1.13;;;30.30;96.70;;;;;;5040362;28;20403;-80
2023/07/27 11:45:26;;;;;;;3.05;1.00;;;30.50;96.70;;;;;;5046186;28;20120;-80
2023/07/27 11:47:55;;;;;;;2.83;0.80;;;30.60;96.70;;;;;;5043959;28;20049;-76
2023/07/27 11:50:24;;;;;;;3.97;1.08;;;30.60;96.70;;;;;;5037998;28;20126;-77
2023/07/27 11:52:59;;;;;;;3.10;1.00;;;30.60;96.70;;;;;;5045549;28;20069;-80
2023/07/27 11:55:32;;;;;;;2.75;0.82;;;30.70;96.70;;;;;;5046808;28;20076;-77
2023/07/27 11:58:03;;;;;;;7.40;1.25;;;30.80;96.70;;;;;;5044194;28;20500;-78
2023/07/27 12:00:33;;;;;;;5.47;1.25;;;30.90;96.70;;;;;;5036910;28;20041;-78
2023/07/27 12:03:03;;;;;;;3.90;1.05;;;31.00;96.70;;;;;;5042786;28;20088;-77
2023/07/27 12:05:44;;;;;;;3.78;1.23;;;31.00;96.70;;;;;;5045518;28;20049;-78
2023/07/27 12:08:18;;;;;;;2.60;0.80;;;31.10;96.70;;;;;;5041753;28;20094;-78
2023/07/27 12:10:53;;;;;;;3.65;0.95;;;31.10;96.70;;;;;;5044901;28;20190;-78
2023/07/27 12:13:25;;;;;;;3.10;1.05;;;31.10;96.70;;;;;;5043289;28;20476;-77
2023/07/27 12:16:17;;;;;;;2.22;1.10;;;31.10;96.70;;;;;;5041825;28;20142;-78
2023/07/27 12:18:49;;;;;;;4.85;1.15;;;31.30;96.70;;;;;;5043669;28;20083;-77
2023/07/27 12:21:17;;;;;;;3.00;0.98;;;31.60;96.70;;;;;;5043932;28;20040;-77
2023/07/27 12:23:49;;;;;;;1.98;0.77;;;31.60;96.70;;;;;;5044336;28;20468;-77
2023/07/27 12:26:37;;;;;;;2.70;0.90;;;31.40;96.70;;;;;;5029468;28;20053;-77
2023/07/27 12:29:09;;;;;;;2.28;0.75;;;31.50;96.70;;;;;;5027160;28;20053;-78
2023/07/27 12:31:41;;;;;;;5.45;1.42;;;31.60;96.70;;;;;;5048040;28;20064;-78
2023/07/27 12:34:13;;;;;;;3.58;1.33;;;31.60;96.70;;;;;;5042615;28;20048;-77
2023/07/27 12:36:45;;;;;;;3.95;1.60;;;31.60;96.70;;;;;;5042505;28;20575;-78
2023/07/27 12:39:16;;;;;;;2.65;1.00;;;31.50;96.70;;;;;;5046697;28;20632;-78
2023/07/27 12:41:45;;;;;;;3.35;1.17;;;31.50;96.70;;;;;;5042776;28;20049;-78
2023/07/27 12:44:16;;;;;;;2.85;1.40;;;31.50;96.70;;;;;;5042038;28;20059;-78
2023/07/27 12:46:46;;;;;;;3.60;1.33;;;31.50;96.70;;;;;;5042985;28;20102;-80
2023/07/27 12:49:14;;;;;;;3.80;1.45;;;31.70;96.70;;;;;;5042460;28;20049;-77
2023/07/27 12:51:42;;;;;;;4.25;1.30;;;31.60;96.70;;;;;;5042131;28;20591;-77
2023/07/27 12:54:11;;;;;;;3.45;1.50;;;31.60;96.70;;;;;;5040843;28;20148;-76
2023/07/27 12:56:40;;;;;;;5.00;1.40;;;31.70;96.70;;;;;;5042467;28;20172;-78
2023/07/27 12:59:08;;;;;;;4.60;1.08;;;31.90;96.70;;;;;;5042967;28;20144;-77
2023/07/27 13:01:36;;;;;;;4.13;1.30;;;31.90;96.70;;;;;;5040362;28;20037;-77
2023/07/27 13:04:06;;;;;;;3.97;1.38;;;31.80;96.70;;;;;;5041531;28;20048;-77